sensor_id;sensor_type;location;lat;lon;timestamp;P1;durP1;ratioP1;P2;durP2;ratioP2
42864;SDS011;28511;42.680;23.252;2024-03-08T09:31:58;1.60;;;1.00;;
42864;SDS011;28511;42.680;23.252;2024-03-08T09:34:42;1.10;;;0.70;;
42864;SDS011;28511;42.680;23.252;2024-03-08T09:37:11;1.65;;;1.55;;
42864;SDS011;28511;42.680;23.252;2024-03-08T09:39:51;0.85;;;0.85;;
42864;SDS011;28511;42.680;23.252;2024-03-08T09:45:20;2.38;;;2.17;;
42864;SDS011;28511;42.680;23.252;2024-03-08T09:54:20;1.67;;;1.58;;
42864;SDS011;28511;42.680;23.252;2024-03-08T09:57:03;2.33;;;1.95;;
42864;SDS011;28511;42.680;23.252;2024-03-08T09:59:42;1.95;;;1.08;;
42864;SDS011;28511;42.680;23.252;2024-03-08T10:02:30;0.93;;;0.65;;
42864;SDS011;28511;42.680;23.252;2024-03-08T10:05:18;1.75;;;1.63;;
42864;SDS011;28511;42.680;23.252;2024-03-08T10:07:43;1.25;;;1.20;;
42864;SDS011;28511;42.680;23.252;2024-03-08T10:10:13;5.47;;;1.95;;
42864;SDS011;28511;42.680;23.252;2024-03-08T10:12:59;1.65;;;1.55;;
42864;SDS011;28511;42.680;23.252;2024-03-08T10:18:16;1.30;;;1.23;;
42864;SDS011;28511;42.680;23.252;2024-03-08T10:21:08;2.25;;;1.67;;
42864;SDS011;28511;42.680;23.252;2024-03-08T10:24:00;1.92;;;1.42;;
42864;SDS011;28511;42.680;23.252;2024-03-08T10:26:47;0.60;;;0.60;;
42864;SDS011;28511;42.680;23.252;2024-03-08T10:41:24;2.95;;;1.98;;
42864;SDS011;28511;42.680;23.252;2024-03-08T10:52:22;1.23;;;0.70;;
42864;SDS011;28511;42.680;23.252;2024-03-08T10:54:48;1.17;;;0.70;;
42864;SDS011;28511;42.680;23.252;2024-03-08T10:57:17;3.70;;;1.13;;
42864;SDS011;28511;42.680;23.252;2024-03-08T10:59:43;0.88;;;0.80;;
42864;SDS011;28511;42.680;23.252;2024-03-08T11:02:13;0.93;;;0.82;;
42864;SDS011;28511;42.680;23.252;2024-03-08T11:04:48;1.13;;;1.05;;
42864;SDS011;28511;42.680;23.252;2024-03-08T11:07:14;1.13;;;1.02;;
42864;SDS011;28511;42.680;23.252;2024-03-08T11:09:44;1.27;;;0.77;;
42864;SDS011;28511;42.680;23.252;2024-03-08T11:17:47;1.42;;;1.33;;
42864;SDS011;28511;42.680;23.252;2024-03-08T11:20:13;0.70;;;0.70;;
42864;SDS011;28511;42.680;23.252;2024-03-08T11:23:03;0.82;;;0.82;;
42864;SDS011;28511;42.680;23.252;2024-03-08T11:25:39;1.50;;;1.23;;
42864;SDS011;28511;42.680;23.252;2024-03-08T11:28:22;1.27;;;1.23;;
42864;SDS011;28511;42.680;23.252;2024-03-08T11:33:26;2.63;;;2.08;;
42864;SDS011;28511;42.680;23.252;2024-03-08T11:35:52;0.75;;;0.75;;
42864;SDS011;28511;42.680;23.252;2024-03-08T11:38:17;1.23;;;1.20;;
42864;SDS011;28511;42.680;23.252;2024-03-08T11:40:45;1.02;;;1.02;;
42864;SDS011;28511;42.680;23.252;2024-03-08T11:43:17;0.70;;;0.70;;
42864;SDS011;28511;42.680;23.252;2024-03-08T11:45:50;1.65;;;1.00;;
42864;SDS011;28511;42.680;23.252;2024-03-08T11:48:18;2.33;;;1.08;;
42864;SDS011;28511;42.680;23.252;2024-03-08T11:50:43;2.45;;;1.17;;
42864;SDS011;28511;42.680;23.252;2024-03-08T11:53:13;1.27;;;1.13;;
42864;SDS011;28511;42.680;23.252;2024-03-08T11:56:07;3.28;;;2.03;;
42864;SDS011;28511;42.680;23.252;2024-03-08T11:58:36;0.80;;;0.80;;
42864;SDS011;28511;42.680;23.252;2024-03-08T12:01:03;3.72;;;1.42;;
42864;SDS011;28511;42.680;23.252;2024-03-08T12:03:33;0.90;;;0.90;;
42864;SDS011;28511;42.680;23.252;2024-03-08T12:06:07;0.82;;;0.82;;
42864;SDS011;28511;42.680;23.252;2024-03-08T12:08:35;0.93;;;0.88;;
42864;SDS011;28511;42.680;23.252;2024-03-08T12:11:03;0.50;;;0.50;;
42864;SDS011;28511;42.680;23.252;2024-03-08T12:13:29;0.93;;;0.93;;
42864;SDS011;28511;42.680;23.252;2024-03-08T12:15:59;2.15;;;1.25;;
42864;SDS011;28511;42.680;23.252;2024-03-08T12:18:28;1.20;;;0.90;;
42864;SDS011;28511;42.680;23.252;2024-03-08T12:23:35;5.15;;;1.48;;
42864;SDS011;28511;42.680;23.252;2024-03-08T12:29:44;0.57;;;0.57;;
42864;SDS011;28511;42.680;23.252;2024-03-08T12:31:52;2.17;;;1.63;;
42864;SDS011;28511;42.680;23.252;2024-03-08T12:34:18;1.75;;;0.88;;
42864;SDS011;28511;42.680;23.252;2024-03-08T12:36:47;0.55;;;0.55;;
42864;SDS011;28511;42.680;23.252;2024-03-08T12:41:41;4.93;;;1.33;;
42864;SDS011;28511;42.680;23.252;2024-03-08T12:44:08;2.10;;;0.88;;
42864;SDS011;28511;42.680;23.252;2024-03-08T12:46:39;17.35;;;1.85;;
42864;SDS011;28511;42.680;23.252;2024-03-08T12:49:10;1.95;;;0.73;;
42864;SDS011;28511;42.680;23.252;2024-03-08T12:51:46;0.80;;;0.80;;
42864;SDS011;28511;42.680;23.252;2024-03-08T12:54:12;1.77;;;1.20;;
42864;SDS011;28511;42.680;23.252;2024-03-08T12:56:41;0.50;;;0.50;;
42864;SDS011;28511;42.680;23.252;2024-03-08T12:59:07;0.70;;;0.70;;
42864;SDS011;28511;42.680;23.252;2024-03-08T13:01:35;1.05;;;1.05;;
42864;SDS011;28511;42.680;23.252;2024-03-08T13:04:17;1.73;;;1.40;;
42864;SDS011;28511;42.680;23.252;2024-03-08T13:06:43;0.85;;;0.85;;
42864;SDS011;28511;42.680;23.252;2024-03-08T13:09:11;0.70;;;0.70;;
42864;SDS011;28511;42.680;23.252;2024-03-08T13:11:38;1.38;;;0.90;;
42864;SDS011;28511;42.680;23.252;2024-03-08T13:14:03;0.80;;;0.80;;
42864;SDS011;28511;42.680;23.252;2024-03-08T13:16:30;1.15;;;1.13;;
42864;SDS011;28511;42.680;23.252;2024-03-08T13:18:55;1.38;;;1.25;;
42864;SDS011;28511;42.680;23.252;2024-03-08T13:21:22;2.20;;;1.23;;
42864;SDS011;28511;42.680;23.252;2024-03-08T13:23:49;1.08;;;0.98;;
42864;SDS011;28511;42.680;23.252;2024-03-08T13:26:14;0.65;;;0.65;;
42864;SDS011;28511;42.680;23.252;2024-03-08T13:28:42;1.35;;;1.05;;
42864;SDS011;28511;42.680;23.252;2024-03-08T13:31:09;0.82;;;0.82;;
42864;SDS011;28511;42.680;23.252;2024-03-08T13:33:39;0.85;;;0.85;;
42864;SDS011;28511;42.680;23.252;2024-03-08T13:36:06;0.93;;;0.93;;
42864;SDS011;28511;42.680;23.252;2024-03-08T13:38:41;1.30;;;0.95;;
42864;SDS011;28511;42.680;23.252;2024-03-08T13:41:08;0.93;;;0.93;;
42864;SDS011;28511;42.680;23.252;2024-03-08T13:43:33;0.90;;;0.90;;
42864;SDS011;28511;42.680;23.252;2024-03-08T13:46:02;2.17;;;1.38;;
42864;SDS011;28511;42.680;23.252;2024-03-08T13:51:39;1.33;;;0.90;;
42864;SDS011;28511;42.680;23.252;2024-03-08T13:54:04;1.52;;;1.40;;
42864;SDS011;28511;42.680;23.252;2024-03-08T13:56:31;0.60;;;0.60;;
42864;SDS011;28511;42.680;23.252;2024-03-08T13:58:57;1.67;;;0.70;;
42864;SDS011;28511;42.680;23.252;2024-03-08T14:01:22;0.80;;;0.80;;
42864;SDS011;28511;42.680;23.252;2024-03-08T14:03:48;2.95;;;1.13;;
42864;SDS011;28511;42.680;23.252;2024-03-08T14:06:13;1.38;;;1.27;;
42864;SDS011;28511;42.680;23.252;2024-03-08T14:08:38;2.17;;;0.85;;
42864;SDS011;28511;42.680;23.252;2024-03-08T14:11:07;0.70;;;0.70;;
42864;SDS011;28511;42.680;23.252;2024-03-08T14:13:44;2.92;;;1.35;;
42864;SDS011;28511;42.680;23.252;2024-03-08T14:16:10;0.70;;;0.70;;
42864;SDS011;28511;42.680;23.252;2024-03-08T14:18:39;0.70;;;0.70;;
42864;SDS011;28511;42.680;23.252;2024-03-08T14:21:06;1.83;;;1.73;;
42864;SDS011;28511;42.680;23.252;2024-03-08T14:23:35;0.80;;;0.80;;
42864;SDS011;28511;42.680;23.252;2024-03-08T14:26:01;0.50;;;0.50;;
42864;SDS011;28511;42.680;23.252;2024-03-08T14:28:29;0.60;;;0.60;;
42864;SDS011;28511;42.680;23.252;2024-03-08T14:30:54;1.15;;;1.05;;
42864;SDS011;28511;42.680;23.252;2024-03-08T14:33:20;0.80;;;0.80;;
42864;SDS011;28511;42.680;23.252;2024-03-08T14:35:46;2.28;;;1.00;;
42864;SDS011;28511;42.680;23.252;2024-03-08T14:38:17;0.90;;;0.85;;
42864;SDS011;28511;42.680;23.252;2024-03-08T14:40:43;2.58;;;1.65;;
42864;SDS011;28511;42.680;23.252;2024-03-08T14:43:21;0.60;;;0.60;;
42864;SDS011;28511;42.680;23.252;2024-03-08T14:45:47;0.73;;;0.73;;
42864;SDS011;28511;42.680;23.252;2024-03-08T14:48:13;1.55;;;1.45;;
42864;SDS011;28511;42.680;23.252;2024-03-08T14:50:38;1.95;;;0.93;;
42864;SDS011;28511;42.680;23.252;2024-03-08T14:53:05;1.55;;;1.40;;
42864;SDS011;28511;42.680;23.252;2024-03-08T14:55:31;0.85;;;0.85;;
42864;SDS011;28511;42.680;23.252;2024-03-08T14:57:57;1.13;;;1.02;;
42864;SDS011;28511;42.680;23.252;2024-03-08T15:00:24;0.80;;;0.80;;
42864;SDS011;28511;42.680;23.252;2024-03-08T15:02:59;1.58;;;1.48;;
42864;SDS011;28511;42.680;23.252;2024-03-08T15:05:25;1.30;;;0.85;;
42864;SDS011;28511;42.680;23.252;2024-03-08T15:07:57;1.48;;;1.38;;
42864;SDS011;28511;42.680;23.252;2024-03-08T15:10:23;1.40;;;1.30;;
42864;SDS011;28511;42.680;23.252;2024-03-08T15:12:50;1.48;;;1.38;;
42864;SDS011;28511;42.680;23.252;2024-03-08T15:15:20;2.28;;;2.10;;
42864;SDS011;28511;42.680;23.252;2024-03-08T15:17:45;4.18;;;1.77;;
42864;SDS011;28511;42.680;23.252;2024-03-08T15:20:15;0.93;;;0.70;;
42864;SDS011;28511;42.680;23.252;2024-03-08T15:22:55;2.60;;;1.70;;
42864;SDS011;28511;42.680;23.252;2024-03-08T15:25:24;2.10;;;1.48;;
42864;SDS011;28511;42.680;23.252;2024-03-08T15:28:05;2.25;;;1.85;;
42864;SDS011;28511;42.680;23.252;2024-03-08T15:30:38;1.52;;;1.05;;
42864;SDS011;28511;42.680;23.252;2024-03-08T15:35:35;1.40;;;1.17;;
42864;SDS011;28511;42.680;23.252;2024-03-08T15:38:04;1.92;;;1.05;;
42864;SDS011;28511;42.680;23.252;2024-03-08T15:40:47;3.28;;;1.33;;
42864;SDS011;28511;42.680;23.252;2024-03-08T15:43:14;0.85;;;0.85;;
42864;SDS011;28511;42.680;23.252;2024-03-08T15:45:41;0.63;;;0.63;;
42864;SDS011;28511;42.680;23.252;2024-03-08T15:48:06;2.55;;;1.42;;
42864;SDS011;28511;42.680;23.252;2024-03-08T15:50:33;2.90;;;1.98;;
42864;SDS011;28511;42.680;23.252;2024-03-08T15:53:00;3.67;;;2.33;;
42864;SDS011;28511;42.680;23.252;2024-03-08T15:55:25;2.95;;;1.50;;
42864;SDS011;28511;42.680;23.252;2024-03-08T15:57:52;1.98;;;1.23;;
42864;SDS011;28511;42.680;23.252;2024-03-08T16:00:20;4.68;;;2.30;;
42864;SDS011;28511;42.680;23.252;2024-03-08T16:03:04;2.53;;;1.67;;
42864;SDS011;28511;42.680;23.252;2024-03-08T16:05:37;6.35;;;2.70;;
42864;SDS011;28511;42.680;23.252;2024-03-08T16:08:03;2.42;;;2.22;;
42864;SDS011;28511;42.680;23.252;2024-03-08T16:10:29;7.28;;;2.42;;
42864;SDS011;28511;42.680;23.252;2024-03-08T16:13:03;2.10;;;1.90;;
42864;SDS011;28511;42.680;23.252;2024-03-08T16:15:29;4.22;;;1.83;;
42864;SDS011;28511;42.680;23.252;2024-03-08T16:17:54;1.65;;;1.42;;
42864;SDS011;28511;42.680;23.252;2024-03-08T16:20:38;2.78;;;2.55;;
42864;SDS011;28511;42.680;23.252;2024-03-08T16:23:09;5.85;;;2.13;;
42864;SDS011;28511;42.680;23.252;2024-03-08T16:25:41;3.63;;;1.83;;
42864;SDS011;28511;42.680;23.252;2024-03-08T16:28:07;0.68;;;0.68;;
42864;SDS011;28511;42.680;23.252;2024-03-08T16:30:40;2.13;;;1.95;;
42864;SDS011;28511;42.680;23.252;2024-03-08T16:33:07;25.98;;;1.95;;
42864;SDS011;28511;42.680;23.252;2024-03-08T16:35:32;7.00;;;1.77;;
42864;SDS011;28511;42.680;23.252;2024-03-08T16:38:10;2.55;;;2.33;;
42864;SDS011;28511;42.680;23.252;2024-03-08T16:40:38;6.28;;;1.95;;
42864;SDS011;28511;42.680;23.252;2024-03-08T16:43:04;2.47;;;2.10;;
42864;SDS011;28511;42.680;23.252;2024-03-08T16:45:43;2.40;;;1.20;;
42864;SDS011;28511;42.680;23.252;2024-03-08T16:48:24;2.40;;;2.20;;
42864;SDS011;28511;42.680;23.252;2024-03-08T16:50:51;5.15;;;2.33;;
42864;SDS011;28511;42.680;23.252;2024-03-08T16:53:24;4.88;;;1.77;;
42864;SDS011;28511;42.680;23.252;2024-03-08T16:55:51;1.98;;;1.85;;
42864;SDS011;28511;42.680;23.252;2024-03-08T16:58:20;5.30;;;2.38;;
42864;SDS011;28511;42.680;23.252;2024-03-08T17:00:47;2.58;;;1.90;;
42864;SDS011;28511;42.680;23.252;2024-03-08T17:03:13;3.15;;;2.40;;
42864;SDS011;28511;42.680;23.252;2024-03-08T17:05:41;3.25;;;2.65;;
42864;SDS011;28511;42.680;23.252;2024-03-08T17:08:19;3.72;;;1.23;;
42864;SDS011;28511;42.680;23.252;2024-03-08T17:10:46;4.72;;;3.08;;
42864;SDS011;28511;42.680;23.252;2024-03-08T17:13:13;1.45;;;1.17;;
42864;SDS011;28511;42.680;23.252;2024-03-08T17:15:40;1.85;;;1.73;;
42864;SDS011;28511;42.680;23.252;2024-03-08T17:18:07;5.25;;;3.20;;
42864;SDS011;28511;42.680;23.252;2024-03-08T17:23:28;4.38;;;2.38;;
42864;SDS011;28511;42.680;23.252;2024-03-08T17:25:57;1.85;;;1.17;;
42864;SDS011;28511;42.680;23.252;2024-03-08T17:28:23;1.77;;;1.17;;
42864;SDS011;28511;42.680;23.252;2024-03-08T17:30:52;3.22;;;2.40;;
42864;SDS011;28511;42.680;23.252;2024-03-08T17:33:17;2.67;;;2.47;;
42864;SDS011;28511;42.680;23.252;2024-03-08T17:35:49;4.75;;;3.33;;
42864;SDS011;28511;42.680;23.252;2024-03-08T17:38:17;8.98;;;4.78;;
42864;SDS011;28511;42.680;23.252;2024-03-08T17:40:46;8.80;;;5.00;;
42864;SDS011;28511;42.680;23.252;2024-03-08T17:43:14;5.63;;;3.75;;
42864;SDS011;28511;42.680;23.252;2024-03-08T17:48:44;3.22;;;2.92;;
42864;SDS011;28511;42.680;23.252;2024-03-08T17:51:29;1.88;;;1.70;;
42864;SDS011;28511;42.680;23.252;2024-03-08T17:54:27;1.77;;;1.67;;
42864;SDS011;28511;42.680;23.252;2024-03-08T17:57:43;7.85;;;3.33;;
42864;SDS011;28511;42.680;23.252;2024-03-08T18:08:51;6.57;;;1.88;;
42864;SDS011;28511;42.680;23.252;2024-03-08T18:17:01;2.05;;;1.90;;
42864;SDS011;28511;42.680;23.252;2024-03-08T18:25:42;7.30;;;2.88;;
42864;SDS011;28511;42.680;23.252;2024-03-08T18:28:19;2.53;;;2.33;;
42864;SDS011;28511;42.680;23.252;2024-03-08T18:31:07;3.30;;;2.13;;
42864;SDS011;28511;42.680;23.252;2024-03-08T18:42:54;3.90;;;1.40;;
42864;SDS011;28511;42.680;23.252;2024-03-08T18:51:40;2.70;;;2.17;;
42864;SDS011;28511;42.680;23.252;2024-03-08T19:03:28;4.07;;;2.40;;
42864;SDS011;28511;42.680;23.252;2024-03-08T19:06:03;3.97;;;2.97;;
42864;SDS011;28511;42.680;23.252;2024-03-08T19:08:49;5.50;;;3.25;;
42864;SDS011;28511;42.680;23.252;2024-03-08T19:13:59;3.50;;;2.38;;
42864;SDS011;28511;42.680;23.252;2024-03-08T19:16:36;3.60;;;3.30;;
42864;SDS011;28511;42.680;23.252;2024-03-08T19:23:08;3.28;;;2.40;;
42864;SDS011;28511;42.680;23.252;2024-03-08T19:25:35;5.35;;;3.17;;
42864;SDS011;28511;42.680;23.252;2024-03-08T19:28:21;2.10;;;2.00;;
42864;SDS011;28511;42.680;23.252;2024-03-08T19:30:54;2.05;;;1.95;;
42864;SDS011;28511;42.680;23.252;2024-03-08T19:33:46;7.32;;;2.00;;
42864;SDS011;28511;42.680;23.252;2024-03-08T19:41:52;2.92;;;2.53;;
42864;SDS011;28511;42.680;23.252;2024-03-08T19:47:29;2.13;;;2.03;;
42864;SDS011;28511;42.680;23.252;2024-03-08T19:53:03;2.22;;;2.03;;
42864;SDS011;28511;42.680;23.252;2024-03-08T20:01:34;4.63;;;2.22;;
42864;SDS011;28511;42.680;23.252;2024-03-08T20:09:32;3.03;;;2.45;;
42864;SDS011;28511;42.680;23.252;2024-03-08T20:15:06;2.55;;;2.33;;
42864;SDS011;28511;42.680;23.252;2024-03-08T20:26:10;6.15;;;3.63;;
42864;SDS011;28511;42.680;23.252;2024-03-08T20:28:45;3.08;;;2.33;;
42864;SDS011;28511;42.680;23.252;2024-03-08T20:37:11;6.85;;;3.40;;
42864;SDS011;28511;42.680;23.252;2024-03-08T20:42:34;6.35;;;3.25;;
42864;SDS011;28511;42.680;23.252;2024-03-08T20:45:11;3.10;;;2.38;;
42864;SDS011;28511;42.680;23.252;2024-03-08T20:53:23;1.63;;;1.55;;
42864;SDS011;28511;42.680;23.252;2024-03-08T20:56:22;3.88;;;2.03;;
42864;SDS011;28511;42.680;23.252;2024-03-08T20:58:50;4.32;;;3.50;;
42864;SDS011;28511;42.680;23.252;2024-03-08T21:01:45;15.65;;;2.35;;
42864;SDS011;28511;42.680;23.252;2024-03-08T21:04:11;5.65;;;2.17;;
42864;SDS011;28511;42.680;23.252;2024-03-08T21:06:44;4.00;;;2.00;;
42864;SDS011;28511;42.680;23.252;2024-03-08T21:11:49;4.53;;;2.30;;
42864;SDS011;28511;42.680;23.252;2024-03-08T21:14:18;5.07;;;2.45;;
42864;SDS011;28511;42.680;23.252;2024-03-08T21:27:39;10.45;;;3.55;;
42864;SDS011;28511;42.680;23.252;2024-03-08T21:36:53;3.42;;;2.40;;
42864;SDS011;28511;42.680;23.252;2024-03-08T21:39:35;1.15;;;1.15;;
42864;SDS011;28511;42.680;23.252;2024-03-08T21:42:00;2.67;;;1.52;;
42864;SDS011;28511;42.680;23.252;2024-03-08T21:47:17;3.22;;;2.92;;
42864;SDS011;28511;42.680;23.252;2024-03-08T21:56:05;4.32;;;1.90;;
42864;SDS011;28511;42.680;23.252;2024-03-08T22:04:59;1.95;;;1.85;;
42864;SDS011;28511;42.680;23.252;2024-03-08T22:10:49;2.70;;;2.08;;
42864;SDS011;28511;42.680;23.252;2024-03-08T22:16:39;3.75;;;2.60;;
42864;SDS011;28511;42.680;23.252;2024-03-08T22:20:04;4.53;;;2.13;;
42864;SDS011;28511;42.680;23.252;2024-03-08T22:22:40;3.13;;;2.35;;
42864;SDS011;28511;42.680;23.252;2024-03-08T22:28:30;2.35;;;2.15;;
42864;SDS011;28511;42.680;23.252;2024-03-08T22:30:59;2.67;;;2.05;;
42864;SDS011;28511;42.680;23.252;2024-03-08T22:33:24;3.50;;;2.30;;
42864;SDS011;28511;42.680;23.252;2024-03-08T22:35:51;4.65;;;2.20;;
42864;SDS011;28511;42.680;23.252;2024-03-08T22:38:19;6.55;;;3.25;;
42864;SDS011;28511;42.680;23.252;2024-03-08T22:40:49;6.35;;;2.47;;
42864;SDS011;28511;42.680;23.252;2024-03-08T22:43:15;4.50;;;2.30;;
42864;SDS011;28511;42.680;23.252;2024-03-08T22:45:47;10.45;;;3.05;;
42864;SDS011;28511;42.680;23.252;2024-03-08T22:48:32;2.53;;;2.33;;
42864;SDS011;28511;42.680;23.252;2024-03-08T22:51:03;4.55;;;2.95;;
42864;SDS011;28511;42.680;23.252;2024-03-08T22:53:32;6.53;;;4.43;;
42864;SDS011;28511;42.680;23.252;2024-03-08T22:56:06;4.43;;;4.05;;
42864;SDS011;28511;42.680;23.252;2024-03-08T23:01:16;3.00;;;2.80;;
42864;SDS011;28511;42.680;23.252;2024-03-08T23:04:03;4.68;;;3.97;;
42864;SDS011;28511;42.680;23.252;2024-03-08T23:06:39;3.35;;;3.05;;
42864;SDS011;28511;42.680;23.252;2024-03-08T23:09:08;15.25;;;5.47;;
42864;SDS011;28511;42.680;23.252;2024-03-08T23:11:39;1.95;;;1.85;;
42864;SDS011;28511;42.680;23.252;2024-03-08T23:14:14;9.57;;;4.10;;
42864;SDS011;28511;42.680;23.252;2024-03-08T23:16:54;5.22;;;3.42;;
42864;SDS011;28511;42.680;23.252;2024-03-08T23:19:20;4.43;;;3.83;;
42864;SDS011;28511;42.680;23.252;2024-03-08T23:21:48;5.05;;;3.95;;
42864;SDS011;28511;42.680;23.252;2024-03-08T23:24:14;4.33;;;2.57;;
42864;SDS011;28511;42.680;23.252;2024-03-08T23:26:39;2.97;;;2.78;;
42864;SDS011;28511;42.680;23.252;2024-03-08T23:29:08;3.78;;;3.47;;
42864;SDS011;28511;42.680;23.252;2024-03-08T23:31:35;11.30;;;3.35;;
42864;SDS011;28511;42.680;23.252;2024-03-08T23:34:04;10.35;;;3.63;;
42864;SDS011;28511;42.680;23.252;2024-03-08T23:36:31;5.10;;;4.22;;
42864;SDS011;28511;42.680;23.252;2024-03-08T23:38:56;11.93;;;4.28;;
42864;SDS011;28511;42.680;23.252;2024-03-08T23:41:24;3.30;;;2.83;;
42864;SDS011;28511;42.680;23.252;2024-03-08T23:43:49;3.33;;;3.05;;
42864;SDS011;28511;42.680;23.252;2024-03-08T23:46:15;7.72;;;5.00;;
42864;SDS011;28511;42.680;23.252;2024-03-08T23:48:41;7.20;;;3.92;;
42864;SDS011;28511;42.680;23.252;2024-03-08T23:51:06;5.80;;;5.28;;
42864;SDS011;28511;42.680;23.252;2024-03-08T23:56:42;8.75;;;4.68;;
42864;SDS011;28511;42.680;23.252;2024-03-08T23:59:07;8.23;;;3.65;;
